createdAt,value
2022-08-21T00:01:43.460Z,13.40
2022-08-21T00:04:11.514Z,13.30
2022-08-21T00:06:41.834Z,13.30
2022-08-21T00:09:09.622Z,13.20
2022-08-21T00:11:38.447Z,13.20
2022-08-21T00:14:08.036Z,13.20
2022-08-21T00:16:35.987Z,13.10
2022-08-21T00:19:03.318Z,13.00
2022-08-21T00:21:30.348Z,13.00
2022-08-21T00:23:57.239Z,13.00
2022-08-21T00:26:24.056Z,12.90
2022-08-21T00:28:51.011Z,12.80
2022-08-21T00:31:18.947Z,12.70
2022-08-21T00:33:46.358Z,12.70
2022-08-21T00:36:14.410Z,12.60
2022-08-21T00:38:41.514Z,12.70
2022-08-21T00:41:20.983Z,12.70
2022-08-21T00:43:58.411Z,12.60
2022-08-21T00:46:28.198Z,12.60
2022-08-21T00:48:58.824Z,12.50
2022-08-21T00:51:54.453Z,12.50
2022-08-21T00:54:25.640Z,12.50
2022-08-21T00:57:00.787Z,12.40
2022-08-21T00:59:30.369Z,12.30
2022-08-21T01:01:57.527Z,12.20
2022-08-21T01:04:25.032Z,12.20
2022-08-21T01:06:52.546Z,12.10
2022-08-21T01:09:19.988Z,12.10
2022-08-21T01:11:47.082Z,12.10
2022-08-21T01:14:15.391Z,12.00
2022-08-21T01:16:47.275Z,12.00
2022-08-21T01:19:15.947Z,12.00
2022-08-21T01:21:43.956Z,12.00
2022-08-21T01:24:11.358Z,12.00
2022-08-21T01:26:38.337Z,12.00
2022-08-21T01:29:29.706Z,11.90
2022-08-21T01:31:56.651Z,11.90
2022-08-21T01:34:23.513Z,11.90
2022-08-21T01:36:50.406Z,11.80
2022-08-21T01:39:17.927Z,11.80
2022-08-21T01:41:45.293Z,11.80
2022-08-21T01:44:12.267Z,11.80
2022-08-21T01:46:39.234Z,11.90
2022-08-21T01:49:07.153Z,12.00
2022-08-21T01:51:34.104Z,12.00
2022-08-21T01:54:01.027Z,12.00
2022-08-21T01:56:28.927Z,12.00
2022-08-21T01:58:55.958Z,11.90
2022-08-21T02:01:23.005Z,11.90
2022-08-21T02:03:50.066Z,11.90
2022-08-21T02:06:18.887Z,12.00
2022-08-21T02:08:47.074Z,11.90
2022-08-21T02:11:14.088Z,11.80
2022-08-21T02:13:41.139Z,11.70
2022-08-21T02:16:09.012Z,11.70
2022-08-21T02:18:36.423Z,11.70
2022-08-21T02:21:04.915Z,11.60
2022-08-21T02:23:32.710Z,11.50
2022-08-21T02:26:05.814Z,11.60
2022-08-21T02:28:33.190Z,11.70
2022-08-21T02:31:00.404Z,11.60
2022-08-21T02:33:28.082Z,11.60
2022-08-21T02:35:55.636Z,11.50
2022-08-21T02:38:31.076Z,11.60
2022-08-21T02:40:58.938Z,11.70
2022-08-21T02:43:28.129Z,11.70
2022-08-21T02:45:57.878Z,11.70
2022-08-21T02:48:30.831Z,11.70
2022-08-21T02:51:05.183Z,11.80
2022-08-21T02:53:32.825Z,11.80
2022-08-21T02:56:01.732Z,11.80
2022-08-21T02:58:36.398Z,11.90
2022-08-21T03:01:04.308Z,11.90
2022-08-21T03:03:31.579Z,11.90
2022-08-21T03:05:58.487Z,12.00
2022-08-21T03:08:27.678Z,12.00
2022-08-21T03:10:54.814Z,12.10
2022-08-21T03:13:22.055Z,12.00
2022-08-21T03:15:50.224Z,12.00
2022-08-21T03:18:17.795Z,12.00
2022-08-21T03:20:46.193Z,12.10
2022-08-21T03:23:18.454Z,12.10
2022-08-21T03:25:48.306Z,12.10
2022-08-21T03:28:19.814Z,12.10
2022-08-21T03:30:49.092Z,12.00
2022-08-21T03:33:16.229Z,12.10
2022-08-21T03:35:45.512Z,12.10
2022-08-21T03:38:14.135Z,12.10
2022-08-21T03:40:43.077Z,12.10
2022-08-21T03:43:10.578Z,12.10
2022-08-21T03:45:38.580Z,12.20
2022-08-21T03:48:07.578Z,12.10
2022-08-21T03:50:40.937Z,12.20
2022-08-21T03:53:17.509Z,12.20
2022-08-21T03:55:51.891Z,12.20
2022-08-21T03:58:20.850Z,12.20
2022-08-21T04:00:49.949Z,12.20
2022-08-21T04:03:17.321Z,12.20
2022-08-21T04:05:46.319Z,12.30
2022-08-21T04:08:14.588Z,12.40
2022-08-21T04:10:44.158Z,12.60
2022-08-21T04:13:11.082Z,12.50
2022-08-21T04:15:37.986Z,12.50
2022-08-21T04:18:05.687Z,12.50
2022-08-21T04:20:33.358Z,12.50
2022-08-21T04:23:00.326Z,12.50
2022-08-21T04:25:27.221Z,12.60
2022-08-21T04:27:54.561Z,12.50
2022-08-21T04:30:21.678Z,12.70
2022-08-21T04:32:56.704Z,12.70
2022-08-21T04:35:24.411Z,12.70
2022-08-21T04:37:51.571Z,12.70
2022-08-21T04:40:20.586Z,12.80
2022-08-21T04:43:05.874Z,12.80
2022-08-21T04:45:35.959Z,12.80
2022-08-21T04:48:09.585Z,12.80
2022-08-21T04:50:51.267Z,12.80
2022-08-21T04:53:24.013Z,12.70
2022-08-21T04:55:54.034Z,12.80
2022-08-21T04:58:22.350Z,12.80
2022-08-21T05:00:49.546Z,12.90
2022-08-21T05:03:18.246Z,13.10
2022-08-21T05:05:45.398Z,13.20
2022-08-21T05:08:17.262Z,13.30
2022-08-21T05:10:45.371Z,13.40
2022-08-21T05:13:13.542Z,13.50
2022-08-21T05:15:41.343Z,13.60
2022-08-21T05:18:08.244Z,13.70
2022-08-21T05:20:35.755Z,14.00
2022-08-21T05:23:09.057Z,14.20
2022-08-21T05:25:36.202Z,14.50
2022-08-21T05:28:03.739Z,14.80
2022-08-21T05:30:30.702Z,15.10
2022-08-21T05:33:02.696Z,15.40
2022-08-21T05:35:30.807Z,15.70
2022-08-21T05:37:58.255Z,16.00
2022-08-21T05:40:25.560Z,16.20
2022-08-21T05:42:55.554Z,16.30
2022-08-21T05:45:42.122Z,16.30
2022-08-21T05:48:13.146Z,16.30
2022-08-21T05:50:40.135Z,16.20
2022-08-21T05:53:07.865Z,16.20
2022-08-21T05:55:40.182Z,16.10
2022-08-21T05:58:09.844Z,16.00
2022-08-21T06:00:36.650Z,16.00
2022-08-21T06:03:04.179Z,16.20
2022-08-21T06:05:37.389Z,16.50
2022-08-21T06:08:05.259Z,16.90
2022-08-21T06:10:32.361Z,17.40
2022-08-21T06:12:59.374Z,17.70
2022-08-21T06:15:26.660Z,18.00
2022-08-21T06:17:54.876Z,18.30
2022-08-21T06:20:22.912Z,18.60
2022-08-21T06:22:49.709Z,18.80
2022-08-21T06:25:16.708Z,19.00
2022-08-21T06:27:43.604Z,19.10
2022-08-21T06:30:10.966Z,19.40
2022-08-21T06:32:38.286Z,19.70
2022-08-21T06:35:07.085Z,20.00
2022-08-21T06:37:34.721Z,20.20
2022-08-21T06:40:01.911Z,20.20
2022-08-21T06:42:30.338Z,20.10
2022-08-21T06:44:58.399Z,19.90
2022-08-21T06:47:25.251Z,19.60
2022-08-21T06:49:52.807Z,19.50
2022-08-21T06:52:20.335Z,19.60
2022-08-21T06:54:47.122Z,19.80
2022-08-21T06:57:14.361Z,19.90
2022-08-21T06:59:41.282Z,19.80
2022-08-21T07:02:08.672Z,19.80
2022-08-21T07:04:35.777Z,19.80
2022-08-21T07:07:02.702Z,20.00
2022-08-21T07:09:29.630Z,20.10
2022-08-21T07:11:58.039Z,20.20
2022-08-21T07:14:24.943Z,20.20
2022-08-21T07:16:52.356Z,20.10
2022-08-21T07:19:19.988Z,20.10
2022-08-21T07:21:47.431Z,19.80
2022-08-21T07:24:15.073Z,19.60
2022-08-21T07:26:42.532Z,19.50
2022-08-21T07:29:09.828Z,19.50
2022-08-21T07:31:37.149Z,19.40
2022-08-21T07:34:04.158Z,19.40
2022-08-21T07:36:31.006Z,19.30
2022-08-21T07:39:00.321Z,19.20
2022-08-21T07:41:30.056Z,19.10
2022-08-21T07:43:58.470Z,19.00
2022-08-21T07:46:26.536Z,18.70
2022-08-21T07:48:53.898Z,18.60
2022-08-21T07:51:24.945Z,18.50
2022-08-21T07:53:53.867Z,18.50
2022-08-21T07:56:21.058Z,18.40
2022-08-21T07:58:48.305Z,18.30
2022-08-21T08:01:15.784Z,18.40
2022-08-21T08:03:42.930Z,18.30
2022-08-21T08:06:13.151Z,18.40
2022-08-21T08:08:41.695Z,18.30
2022-08-21T08:11:13.182Z,18.40
2022-08-21T08:13:48.784Z,18.40
2022-08-21T08:16:16.940Z,18.30
2022-08-21T08:18:43.783Z,18.20
2022-08-21T08:21:11.739Z,18.20
2022-08-21T08:23:38.644Z,18.10
2022-08-21T08:26:06.536Z,18.10
2022-08-21T08:28:34.182Z,17.90
2022-08-21T08:31:01.987Z,17.90
2022-08-21T08:33:29.259Z,18.00
2022-08-21T08:35:56.669Z,18.00
2022-08-21T08:38:25.760Z,18.10
2022-08-21T08:41:15.100Z,18.10
2022-08-21T08:43:47.292Z,18.00
2022-08-21T08:46:17.687Z,17.90
2022-08-21T08:48:53.014Z,17.80
2022-08-21T08:51:31.791Z,17.70
2022-08-21T08:54:03.840Z,17.60
2022-08-21T08:56:34.641Z,17.50
2022-08-21T08:59:14.007Z,17.30
2022-08-21T09:01:41.063Z,17.30
2022-08-21T09:04:08.174Z,17.20
2022-08-21T09:06:41.910Z,17.10
2022-08-21T09:09:44.801Z,17.10
2022-08-21T09:12:27.164Z,17.10
2022-08-21T09:15:08.877Z,17.10
2022-08-21T09:17:59.443Z,17.00
2022-08-21T09:20:29.035Z,17.00
2022-08-21T09:23:23.182Z,17.10
2022-08-21T09:26:25.156Z,17.00
2022-08-21T09:28:58.377Z,16.90
2022-08-21T09:31:30.794Z,17.00
2022-08-21T09:34:10.825Z,17.10
2022-08-21T09:36:45.255Z,17.10
2022-08-21T09:39:14.880Z,17.20
2022-08-21T09:41:41.695Z,17.40
2022-08-21T09:44:09.593Z,17.40
2022-08-21T09:46:37.347Z,17.50
2022-08-21T09:49:06.829Z,17.60
2022-08-21T09:51:52.640Z,17.70
2022-08-21T09:54:22.499Z,17.70
2022-08-21T09:57:18.818Z,17.70
2022-08-21T09:59:47.882Z,17.70
2022-08-21T10:02:30.438Z,17.80
2022-08-21T10:05:17.579Z,17.80
2022-08-21T10:07:44.632Z,17.80
2022-08-21T10:10:17.643Z,17.70
2022-08-21T10:12:52.714Z,17.70
2022-08-21T10:16:14.113Z,17.80
2022-08-21T10:18:48.386Z,17.80
2022-08-21T10:21:27.505Z,18.00
2022-08-21T10:24:06.263Z,18.30
2022-08-21T10:26:45.002Z,18.50
2022-08-21T10:29:14.675Z,18.50
2022-08-21T10:32:02.922Z,18.30
2022-08-21T10:34:58.453Z,18.40
2022-08-21T10:38:46.409Z,18.60
2022-08-21T10:41:59.402Z,18.90
2022-08-21T10:44:51.184Z,19.30
2022-08-21T10:47:43.291Z,19.50
2022-08-21T10:50:13.691Z,19.90
2022-08-21T10:52:59.246Z,20.20
2022-08-21T10:55:42.224Z,20.40
2022-08-21T10:58:18.891Z,20.50
2022-08-21T11:00:52.440Z,20.40
2022-08-21T11:03:34.583Z,20.50
2022-08-21T11:06:25.995Z,20.70
2022-08-21T11:09:19.281Z,20.90
2022-08-21T11:11:59.482Z,20.90
2022-08-21T11:15:03.042Z,20.80
2022-08-21T11:17:43.431Z,20.60
2022-08-21T11:20:34.061Z,20.50
2022-08-21T11:23:22.840Z,20.60
2022-08-21T11:26:02.781Z,20.50
2022-08-21T11:28:34.110Z,20.50
2022-08-21T11:31:08.559Z,20.40
2022-08-21T11:33:55.847Z,20.70
2022-08-21T11:36:35.385Z,20.90
2022-08-21T11:39:40.732Z,20.80
2022-08-21T11:42:15.665Z,20.70
2022-08-21T11:44:47.744Z,20.90
2022-08-21T11:47:33.205Z,20.80
2022-08-21T11:50:35.675Z,21.00
2022-08-21T11:53:04.463Z,21.10
2022-08-21T11:55:56.172Z,21.00
2022-08-21T11:58:28.217Z,20.80
2022-08-21T12:00:59.104Z,20.70
2022-08-21T12:03:55.527Z,20.60
2022-08-21T12:06:40.932Z,20.60
2022-08-21T12:09:30.831Z,20.60
2022-08-21T12:12:14.670Z,20.80
2022-08-21T12:14:50.908Z,21.20
2022-08-21T12:17:37.755Z,21.20
2022-08-21T12:20:19.188Z,21.30
2022-08-21T12:23:03.774Z,21.30
2022-08-21T12:25:44.255Z,21.20
2022-08-21T12:28:15.348Z,20.80
2022-08-21T12:30:46.062Z,20.50
2022-08-21T12:33:31.845Z,20.40
2022-08-21T12:36:11.354Z,20.60
2022-08-21T12:38:51.581Z,20.60
2022-08-21T12:41:49.255Z,20.80
2022-08-21T12:44:23.276Z,20.70
2022-08-21T12:47:17.693Z,20.70
2022-08-21T12:50:09.680Z,20.60
2022-08-21T12:53:00.372Z,20.60
2022-08-21T12:55:30.930Z,20.50
2022-08-21T12:57:57.927Z,20.30
2022-08-21T13:00:29.197Z,20.10
2022-08-21T13:02:57.573Z,20.00
2022-08-21T13:05:38.316Z,19.90
2022-08-21T13:08:07.640Z,19.60
2022-08-21T13:10:36.796Z,19.50
2022-08-21T13:13:25.527Z,19.40
2022-08-21T13:16:05.332Z,19.10
2022-08-21T13:18:34.942Z,18.80
2022-08-21T13:21:08.553Z,18.30
2022-08-21T13:23:35.504Z,17.70
2022-08-21T13:26:04.358Z,17.20
2022-08-21T13:28:38.592Z,16.90
2022-08-21T13:31:11.102Z,16.50
2022-08-21T13:33:41.533Z,16.30
2022-08-21T13:36:30.112Z,16.20
2022-08-21T13:38:57.410Z,16.00
2022-08-21T13:41:34.910Z,15.80
2022-08-21T13:44:05.570Z,15.60
2022-08-21T13:46:36.630Z,15.40
2022-08-21T13:49:06.012Z,15.30
2022-08-21T13:51:33.414Z,15.20
2022-08-21T13:54:00.543Z,15.10
2022-08-21T13:56:34.298Z,15.20
2022-08-21T13:59:02.660Z,15.30
2022-08-21T14:01:33.689Z,15.50
2022-08-21T14:04:31.123Z,15.70
2022-08-21T14:06:58.079Z,15.90
2022-08-21T14:09:33.080Z,16.10
2022-08-21T14:12:04.530Z,16.20
2022-08-21T14:14:34.858Z,16.40
2022-08-21T14:17:11.229Z,16.70
2022-08-21T14:19:52.398Z,16.90
2022-08-21T14:22:32.771Z,17.10
2022-08-21T14:25:07.383Z,17.20
2022-08-21T14:27:45.795Z,17.20
2022-08-21T14:30:35.090Z,17.30
2022-08-21T14:33:03.247Z,17.40
2022-08-21T14:35:30.088Z,17.50
2022-08-21T14:37:59.009Z,17.50
2022-08-21T14:40:26.430Z,17.60
2022-08-21T14:42:54.171Z,17.50
2022-08-21T14:45:27.925Z,17.50
2022-08-21T14:47:55.812Z,17.60
2022-08-21T14:50:22.895Z,17.70
2022-08-21T14:52:50.366Z,18.00
2022-08-21T14:55:19.133Z,18.20
2022-08-21T14:57:53.079Z,18.30
2022-08-21T15:00:27.028Z,18.50
2022-08-21T15:03:03.720Z,18.60
2022-08-21T15:05:33.764Z,18.80
2022-08-21T15:08:01.102Z,18.80
2022-08-21T15:10:28.573Z,18.90
2022-08-21T15:12:55.998Z,19.00
2022-08-21T15:15:22.894Z,19.00
2022-08-21T15:17:49.763Z,19.10
2022-08-21T15:20:16.590Z,19.20
2022-08-21T15:22:47.703Z,19.00
2022-08-21T15:25:15.856Z,19.10
2022-08-21T15:27:42.843Z,19.10
2022-08-21T15:30:10.814Z,19.10
2022-08-21T15:32:39.074Z,19.20
2022-08-21T15:35:06.971Z,19.10
2022-08-21T15:37:33.902Z,19.00
2022-08-21T15:40:00.925Z,19.10
2022-08-21T15:42:28.893Z,19.10
2022-08-21T15:44:58.029Z,18.90
2022-08-21T15:47:34.496Z,18.90
2022-08-21T15:50:01.752Z,18.70
2022-08-21T15:52:28.673Z,18.60
2022-08-21T15:54:55.562Z,18.70
2022-08-21T15:57:24.748Z,18.60
2022-08-21T16:00:12.602Z,18.60
2022-08-21T16:02:40.342Z,18.70
2022-08-21T16:05:08.422Z,18.80
2022-08-21T16:07:35.215Z,19.00
2022-08-21T16:10:03.729Z,19.10
2022-08-21T16:12:39.190Z,19.10
2022-08-21T16:15:20.426Z,19.10
2022-08-21T16:17:49.900Z,19.10
2022-08-21T16:20:20.710Z,19.10
2022-08-21T16:22:47.815Z,19.10
2022-08-21T16:25:16.210Z,19.20
2022-08-21T16:27:48.879Z,19.20
2022-08-21T16:30:16.531Z,19.00
2022-08-21T16:32:44.225Z,18.90
2022-08-21T16:35:13.936Z,18.80
2022-08-21T16:37:41.503Z,18.80
2022-08-21T16:40:10.491Z,18.80
2022-08-21T16:42:40.211Z,18.70
2022-08-21T16:45:20.175Z,18.50
2022-08-21T16:47:47.135Z,18.40
2022-08-21T16:50:19.994Z,18.30
2022-08-21T16:52:46.822Z,18.20
2022-08-21T16:55:13.761Z,18.10
2022-08-21T16:57:41.267Z,17.90
2022-08-21T17:00:12.918Z,17.80
2022-08-21T17:02:46.118Z,17.70
2022-08-21T17:05:14.272Z,17.50
2022-08-21T17:07:42.879Z,17.50
2022-08-21T17:10:12.422Z,17.40
2022-08-21T17:12:41.696Z,17.30
2022-08-21T17:15:21.353Z,17.30
2022-08-21T17:17:49.230Z,17.30
2022-08-21T17:20:16.429Z,17.20
2022-08-21T17:22:43.237Z,17.20
2022-08-21T17:25:10.618Z,16.70
2022-08-21T17:27:38.703Z,16.60
2022-08-21T17:30:06.656Z,16.30
2022-08-21T17:32:33.515Z,16.30
2022-08-21T17:35:00.319Z,16.30
2022-08-21T17:37:29.299Z,16.30
2022-08-21T17:39:57.068Z,16.50
2022-08-21T17:42:25.310Z,16.60
2022-08-21T17:44:52.751Z,16.80
2022-08-21T17:47:19.753Z,16.90
2022-08-21T17:49:46.552Z,16.90
2022-08-21T17:52:13.722Z,16.90
2022-08-21T17:54:41.257Z,16.80
2022-08-21T17:57:18.023Z,16.60
2022-08-21T17:59:45.592Z,16.60
2022-08-21T18:02:20.071Z,16.50
2022-08-21T18:04:50.641Z,16.40
2022-08-21T18:07:30.894Z,16.40
2022-08-21T18:10:01.509Z,16.20
2022-08-21T18:12:29.538Z,16.10
2022-08-21T18:14:56.682Z,15.80
2022-08-21T18:17:24.635Z,15.60
2022-08-21T18:19:51.514Z,15.40
2022-08-21T18:22:18.413Z,15.10
2022-08-21T18:24:46.224Z,14.80
2022-08-21T18:27:15.051Z,14.50
2022-08-21T18:29:47.076Z,14.30
2022-08-21T18:32:30.850Z,14.20
2022-08-21T18:35:00.552Z,14.10
2022-08-21T18:37:27.585Z,14.00
2022-08-21T18:39:54.498Z,13.90
2022-08-21T18:42:28.679Z,13.80
2022-08-21T18:45:01.508Z,13.60
2022-08-21T18:47:33.688Z,13.50
2022-08-21T18:50:01.184Z,13.30
2022-08-21T18:55:16.434Z,13.20
2022-08-21T18:57:45.944Z,13.10
2022-08-21T19:00:18.954Z,13.00
2022-08-21T19:02:46.136Z,13.00
2022-08-21T19:05:15.456Z,13.00
2022-08-21T19:07:45.438Z,12.90
2022-08-21T19:10:27.628Z,12.80
2022-08-21T19:13:01.110Z,12.80
2022-08-21T19:15:28.836Z,12.70
2022-08-21T19:17:58.207Z,12.60
2022-08-21T19:20:34.554Z,12.60
2022-08-21T19:23:06.460Z,12.60
2022-08-21T19:25:35.308Z,12.50
2022-08-21T19:28:16.066Z,12.50
2022-08-21T19:30:49.212Z,12.40
2022-08-21T19:33:23.629Z,12.30
2022-08-21T19:35:52.637Z,12.30
2022-08-21T19:38:20.032Z,12.30
2022-08-21T19:40:47.430Z,12.10
2022-08-21T19:43:14.643Z,12.10
2022-08-21T19:45:41.737Z,12.10
2022-08-21T19:48:09.089Z,12.00
2022-08-21T19:50:37.031Z,11.90
2022-08-21T19:53:04.974Z,11.90
2022-08-21T19:55:43.565Z,11.80
2022-08-21T19:58:34.949Z,11.70
2022-08-21T20:01:05.968Z,11.70
2022-08-21T20:03:44.551Z,11.60
2022-08-21T20:06:24.020Z,11.50
2022-08-21T20:08:51.896Z,11.50
2022-08-21T20:11:33.130Z,11.40
2022-08-21T20:14:00.918Z,11.50
2022-08-21T20:16:28.738Z,11.50
2022-08-21T20:18:55.988Z,11.40
2022-08-21T20:21:22.932Z,11.30
2022-08-21T20:23:50.015Z,11.30
2022-08-21T20:26:18.583Z,11.20
2022-08-21T20:28:45.848Z,11.10
2022-08-21T20:31:17.688Z,11.00
2022-08-21T20:33:46.575Z,11.00
2022-08-21T20:36:16.969Z,10.90
2022-08-21T20:38:44.599Z,10.90
2022-08-21T20:41:21.142Z,10.80
2022-08-21T20:43:49.586Z,10.70
2022-08-21T20:46:21.607Z,10.70
2022-08-21T20:48:50.015Z,10.70
2022-08-21T20:51:42.727Z,10.60
2022-08-21T20:54:28.645Z,10.70
2022-08-21T20:57:17.005Z,10.70
2022-08-21T20:59:56.224Z,10.70
2022-08-21T21:02:44.102Z,10.60
2022-08-21T21:05:21.849Z,10.60
2022-08-21T21:08:00.506Z,10.60
2022-08-21T21:10:39.915Z,10.60
2022-08-21T21:13:32.742Z,10.50
2022-08-21T21:16:04.749Z,10.50
2022-08-21T21:18:44.838Z,10.40
2022-08-21T21:21:31.074Z,10.40
2022-08-21T21:24:17.302Z,10.30
2022-08-21T21:26:57.391Z,10.30
2022-08-21T21:29:33.030Z,10.30
2022-08-21T21:32:00.424Z,10.20
2022-08-21T21:34:32.370Z,10.20
2022-08-21T21:37:05.187Z,10.10
2022-08-21T21:39:42.788Z,10.00
2022-08-21T21:42:18.142Z,10.00
2022-08-21T21:45:12.293Z,9.90
2022-08-21T21:47:41.938Z,10.00
2022-08-21T21:50:29.523Z,10.00
2022-08-21T21:53:02.420Z,10.10
2022-08-21T21:56:00.910Z,10.00
2022-08-21T21:58:30.594Z,9.90
2022-08-21T22:01:14.707Z,9.90
2022-08-21T22:04:09.479Z,9.90
2022-08-21T22:06:55.434Z,9.90
2022-08-21T22:09:43.301Z,9.90
2022-08-21T22:12:23.094Z,9.90
2022-08-21T22:14:51.522Z,10.00
2022-08-21T22:17:55.934Z,9.90
2022-08-21T22:20:49.966Z,9.90
2022-08-21T22:23:21.392Z,9.90
2022-08-21T22:25:54.223Z,9.90
2022-08-21T22:28:26.801Z,9.90
2022-08-21T22:31:10.085Z,9.80
2022-08-21T22:33:36.960Z,9.90
2022-08-21T22:36:15.999Z,9.90
2022-08-21T22:38:43.055Z,9.90
2022-08-21T22:41:17.247Z,9.90
2022-08-21T22:44:07.535Z,9.80
2022-08-21T22:46:56.771Z,9.90
2022-08-21T22:49:42.048Z,9.80
2022-08-21T22:52:22.274Z,9.80
2022-08-21T22:54:51.610Z,9.70
2022-08-21T22:57:30.522Z,9.70
2022-08-21T23:00:00.632Z,9.70
2022-08-21T23:02:45.543Z,9.70
2022-08-21T23:05:32.431Z,9.70
2022-08-21T23:11:13.351Z,9.60
2022-08-21T23:13:43.768Z,9.60
2022-08-21T23:16:50.516Z,9.60
2022-08-21T23:19:42.947Z,9.60
2022-08-21T23:22:29.534Z,9.50
2022-08-21T23:25:29.993Z,9.50
2022-08-21T23:27:59.983Z,9.50
2022-08-21T23:30:45.003Z,9.50
2022-08-21T23:33:38.728Z,9.50
2022-08-21T23:36:51.594Z,9.50
2022-08-21T23:39:41.705Z,9.40
2022-08-21T23:42:14.317Z,9.40
2022-08-21T23:44:53.094Z,9.40
2022-08-21T23:47:52.345Z,9.30
2022-08-21T23:50:29.558Z,9.30
2022-08-21T23:52:57.098Z,9.30
2022-08-21T23:55:55.358Z,9.30
2022-08-21T23:58:25.349Z,9.20
